sensor_id;sensor_type;location;lat;lon;timestamp;P1;durP1;ratioP1;P2;durP2;ratioP2
81457;SDS011;70882;52.500;5.500;2023-07-09T00:00:21;12.85;;;6.82;;
81457;SDS011;70882;52.500;5.500;2023-07-09T00:02:48;11.95;;;7.97;;
81457;SDS011;70882;52.500;5.500;2023-07-09T00:05:14;12.27;;;7.28;;
81457;SDS011;70882;52.500;5.500;2023-07-09T00:07:41;10.00;;;7.07;;
81457;SDS011;70882;52.500;5.500;2023-07-09T00:10:17;12.07;;;7.90;;
81457;SDS011;70882;52.500;5.500;2023-07-09T00:12:45;11.25;;;7.72;;
81457;SDS011;70882;52.500;5.500;2023-07-09T00:15:11;12.93;;;7.88;;
81457;SDS011;70882;52.500;5.500;2023-07-09T00:17:37;11.98;;;7.32;;
81457;SDS011;70882;52.500;5.500;2023-07-09T00:20:05;11.10;;;7.80;;
81457;SDS011;70882;52.500;5.500;2023-07-09T00:22:38;12.70;;;7.78;;
81457;SDS011;70882;52.500;5.500;2023-07-09T00:25:04;15.48;;;8.65;;
81457;SDS011;70882;52.500;5.500;2023-07-09T00:27:29;10.73;;;7.85;;
81457;SDS011;70882;52.500;5.500;2023-07-09T00:29:58;13.70;;;8.18;;
81457;SDS011;70882;52.500;5.500;2023-07-09T00:32:24;12.40;;;7.35;;
81457;SDS011;70882;52.500;5.500;2023-07-09T00:34:50;11.48;;;8.13;;
81457;SDS011;70882;52.500;5.500;2023-07-09T00:37:17;11.48;;;6.90;;
81457;SDS011;70882;52.500;5.500;2023-07-09T00:39:44;11.07;;;7.18;;
81457;SDS011;70882;52.500;5.500;2023-07-09T00:42:18;12.13;;;7.30;;
81457;SDS011;70882;52.500;5.500;2023-07-09T00:44:45;14.90;;;7.70;;
81457;SDS011;70882;52.500;5.500;2023-07-09T00:47:20;9.98;;;7.30;;
81457;SDS011;70882;52.500;5.500;2023-07-09T00:49:48;10.98;;;7.22;;
81457;SDS011;70882;52.500;5.500;2023-07-09T00:52:25;12.30;;;7.63;;
81457;SDS011;70882;52.500;5.500;2023-07-09T00:54:57;11.80;;;7.78;;
81457;SDS011;70882;52.500;5.500;2023-07-09T00:57:24;11.80;;;7.47;;
81457;SDS011;70882;52.500;5.500;2023-07-09T00:59:56;11.35;;;7.75;;
81457;SDS011;70882;52.500;5.500;2023-07-09T01:02:23;13.48;;;8.43;;
81457;SDS011;70882;52.500;5.500;2023-07-09T01:04:51;12.13;;;7.45;;
81457;SDS011;70882;52.500;5.500;2023-07-09T01:07:19;12.57;;;8.48;;
81457;SDS011;70882;52.500;5.500;2023-07-09T01:09:46;14.00;;;7.78;;
81457;SDS011;70882;52.500;5.500;2023-07-09T01:12:14;12.15;;;7.75;;
81457;SDS011;70882;52.500;5.500;2023-07-09T01:14:42;10.20;;;7.65;;
81457;SDS011;70882;52.500;5.500;2023-07-09T01:17:08;11.48;;;7.45;;
81457;SDS011;70882;52.500;5.500;2023-07-09T01:19:39;20.48;;;15.63;;
81457;SDS011;70882;52.500;5.500;2023-07-09T01:22:08;12.18;;;7.65;;
81457;SDS011;70882;52.500;5.500;2023-07-09T01:27:17;10.77;;;7.90;;
81457;SDS011;70882;52.500;5.500;2023-07-09T01:29:45;11.20;;;7.43;;
81457;SDS011;70882;52.500;5.500;2023-07-09T01:32:15;13.25;;;8.88;;
81457;SDS011;70882;52.500;5.500;2023-07-09T01:34:43;11.32;;;7.68;;
81457;SDS011;70882;52.500;5.500;2023-07-09T01:37:09;10.35;;;7.72;;
81457;SDS011;70882;52.500;5.500;2023-07-09T01:39:34;11.18;;;8.00;;
81457;SDS011;70882;52.500;5.500;2023-07-09T01:42:01;12.63;;;7.43;;
81457;SDS011;70882;52.500;5.500;2023-07-09T01:44:26;14.02;;;7.97;;
81457;SDS011;70882;52.500;5.500;2023-07-09T01:46:54;11.55;;;8.18;;
81457;SDS011;70882;52.500;5.500;2023-07-09T01:49:21;10.63;;;7.25;;
81457;SDS011;70882;52.500;5.500;2023-07-09T01:51:47;12.00;;;7.55;;
81457;SDS011;70882;52.500;5.500;2023-07-09T01:54:14;12.85;;;7.30;;
81457;SDS011;70882;52.500;5.500;2023-07-09T01:56:41;9.45;;;7.32;;
81457;SDS011;70882;52.500;5.500;2023-07-09T01:59:07;13.35;;;8.30;;
81457;SDS011;70882;52.500;5.500;2023-07-09T02:01:36;12.18;;;7.93;;
81457;SDS011;70882;52.500;5.500;2023-07-09T02:04:01;13.07;;;8.05;;
81457;SDS011;70882;52.500;5.500;2023-07-09T02:06:27;12.85;;;7.88;;
81457;SDS011;70882;52.500;5.500;2023-07-09T02:08:56;14.30;;;8.38;;
81457;SDS011;70882;52.500;5.500;2023-07-09T02:11:22;13.60;;;8.10;;
81457;SDS011;70882;52.500;5.500;2023-07-09T02:13:47;9.98;;;7.68;;
81457;SDS011;70882;52.500;5.500;2023-07-09T02:16:13;12.07;;;7.55;;
81457;SDS011;70882;52.500;5.500;2023-07-09T02:18:38;12.00;;;7.80;;
81457;SDS011;70882;52.500;5.500;2023-07-09T02:21:03;10.80;;;7.47;;
81457;SDS011;70882;52.500;5.500;2023-07-09T02:23:29;9.93;;;7.65;;
81457;SDS011;70882;52.500;5.500;2023-07-09T02:25:54;11.25;;;7.18;;
81457;SDS011;70882;52.500;5.500;2023-07-09T02:28:19;13.82;;;7.22;;
81457;SDS011;70882;52.500;5.500;2023-07-09T02:30:45;9.10;;;6.90;;
81457;SDS011;70882;52.500;5.500;2023-07-09T02:33:10;12.65;;;7.07;;
81457;SDS011;70882;52.500;5.500;2023-07-09T02:35:36;10.45;;;7.32;;
81457;SDS011;70882;52.500;5.500;2023-07-09T02:38:02;12.68;;;7.03;;
81457;SDS011;70882;52.500;5.500;2023-07-09T02:40:28;10.30;;;7.20;;
81457;SDS011;70882;52.500;5.500;2023-07-09T02:42:53;11.45;;;7.40;;
81457;SDS011;70882;52.500;5.500;2023-07-09T02:45:19;11.93;;;7.20;;
81457;SDS011;70882;52.500;5.500;2023-07-09T02:47:44;12.32;;;7.30;;
81457;SDS011;70882;52.500;5.500;2023-07-09T02:50:10;10.55;;;6.85;;
81457;SDS011;70882;52.500;5.500;2023-07-09T02:52:35;10.48;;;7.75;;
81457;SDS011;70882;52.500;5.500;2023-07-09T02:55:00;12.40;;;8.10;;
81457;SDS011;70882;52.500;5.500;2023-07-09T02:57:26;12.65;;;7.55;;
81457;SDS011;70882;52.500;5.500;2023-07-09T02:59:51;12.05;;;7.80;;
81457;SDS011;70882;52.500;5.500;2023-07-09T03:02:16;9.85;;;7.20;;
81457;SDS011;70882;52.500;5.500;2023-07-09T03:04:42;11.35;;;7.28;;
81457;SDS011;70882;52.500;5.500;2023-07-09T03:07:07;11.00;;;7.43;;
81457;SDS011;70882;52.500;5.500;2023-07-09T03:09:33;9.93;;;6.60;;
81457;SDS011;70882;52.500;5.500;2023-07-09T03:11:58;13.15;;;7.53;;
81457;SDS011;70882;52.500;5.500;2023-07-09T03:14:23;12.02;;;7.47;;
81457;SDS011;70882;52.500;5.500;2023-07-09T03:16:49;11.27;;;8.75;;
81457;SDS011;70882;52.500;5.500;2023-07-09T03:19:14;11.40;;;8.00;;
81457;SDS011;70882;52.500;5.500;2023-07-09T03:21:40;11.35;;;7.43;;
81457;SDS011;70882;52.500;5.500;2023-07-09T03:24:05;12.65;;;7.60;;
81457;SDS011;70882;52.500;5.500;2023-07-09T03:26:31;13.50;;;7.78;;
81457;SDS011;70882;52.500;5.500;2023-07-09T03:28:56;12.45;;;7.75;;
81457;SDS011;70882;52.500;5.500;2023-07-09T03:31:22;11.90;;;7.13;;
81457;SDS011;70882;52.500;5.500;2023-07-09T03:33:48;10.38;;;8.52;;
81457;SDS011;70882;52.500;5.500;2023-07-09T03:36:14;10.35;;;7.00;;
81457;SDS011;70882;52.500;5.500;2023-07-09T03:38:40;10.20;;;7.30;;
81457;SDS011;70882;52.500;5.500;2023-07-09T03:41:05;9.95;;;6.88;;
81457;SDS011;70882;52.500;5.500;2023-07-09T03:43:31;14.02;;;8.05;;
81457;SDS011;70882;52.500;5.500;2023-07-09T03:45:56;11.52;;;7.90;;
81457;SDS011;70882;52.500;5.500;2023-07-09T03:48:22;11.15;;;7.05;;
81457;SDS011;70882;52.500;5.500;2023-07-09T03:50:47;12.18;;;7.00;;
81457;SDS011;70882;52.500;5.500;2023-07-09T03:53:13;11.63;;;7.03;;
81457;SDS011;70882;52.500;5.500;2023-07-09T03:55:39;10.50;;;7.53;;
81457;SDS011;70882;52.500;5.500;2023-07-09T03:58:05;11.10;;;7.40;;
81457;SDS011;70882;52.500;5.500;2023-07-09T04:00:30;10.27;;;6.72;;
81457;SDS011;70882;52.500;5.500;2023-07-09T04:02:56;10.35;;;7.90;;
81457;SDS011;70882;52.500;5.500;2023-07-09T04:05:24;11.35;;;7.35;;
81457;SDS011;70882;52.500;5.500;2023-07-09T04:07:50;13.93;;;7.68;;
81457;SDS011;70882;52.500;5.500;2023-07-09T04:10:16;12.73;;;7.47;;
81457;SDS011;70882;52.500;5.500;2023-07-09T04:12:41;11.98;;;7.85;;
81457;SDS011;70882;52.500;5.500;2023-07-09T04:15:07;11.80;;;7.75;;
81457;SDS011;70882;52.500;5.500;2023-07-09T04:17:33;12.80;;;7.68;;
81457;SDS011;70882;52.500;5.500;2023-07-09T04:19:59;12.02;;;7.32;;
81457;SDS011;70882;52.500;5.500;2023-07-09T04:22:24;13.20;;;6.93;;
81457;SDS011;70882;52.500;5.500;2023-07-09T04:24:50;9.93;;;7.47;;
81457;SDS011;70882;52.500;5.500;2023-07-09T04:27:17;14.05;;;8.00;;
81457;SDS011;70882;52.500;5.500;2023-07-09T04:29:42;12.77;;;7.43;;
81457;SDS011;70882;52.500;5.500;2023-07-09T04:32:08;11.63;;;7.90;;
81457;SDS011;70882;52.500;5.500;2023-07-09T04:34:37;13.10;;;7.90;;
81457;SDS011;70882;52.500;5.500;2023-07-09T04:37:04;13.38;;;8.05;;
81457;SDS011;70882;52.500;5.500;2023-07-09T04:39:33;10.18;;;7.57;;
81457;SDS011;70882;52.500;5.500;2023-07-09T04:41:58;10.35;;;7.15;;
81457;SDS011;70882;52.500;5.500;2023-07-09T04:44:23;10.10;;;7.93;;
81457;SDS011;70882;52.500;5.500;2023-07-09T04:46:50;11.55;;;8.30;;
81457;SDS011;70882;52.500;5.500;2023-07-09T04:49:15;14.15;;;8.90;;
81457;SDS011;70882;52.500;5.500;2023-07-09T04:51:40;13.90;;;9.45;;
81457;SDS011;70882;52.500;5.500;2023-07-09T04:54:06;15.20;;;9.85;;
81457;SDS011;70882;52.500;5.500;2023-07-09T04:56:31;16.85;;;9.60;;
81457;SDS011;70882;52.500;5.500;2023-07-09T04:58:57;15.65;;;10.93;;
81457;SDS011;70882;52.500;5.500;2023-07-09T05:01:22;14.70;;;10.30;;
81457;SDS011;70882;52.500;5.500;2023-07-09T05:03:48;17.33;;;10.48;;
81457;SDS011;70882;52.500;5.500;2023-07-09T05:06:13;20.30;;;11.32;;
81457;SDS011;70882;52.500;5.500;2023-07-09T05:08:39;17.75;;;10.50;;
81457;SDS011;70882;52.500;5.500;2023-07-09T05:11:06;18.58;;;9.73;;
81457;SDS011;70882;52.500;5.500;2023-07-09T05:13:31;16.90;;;9.95;;
81457;SDS011;70882;52.500;5.500;2023-07-09T05:15:56;23.45;;;10.63;;
81457;SDS011;70882;52.500;5.500;2023-07-09T05:18:22;17.13;;;10.15;;
81457;SDS011;70882;52.500;5.500;2023-07-09T05:20:49;14.30;;;9.00;;
81457;SDS011;70882;52.500;5.500;2023-07-09T05:23:14;13.68;;;9.20;;
81457;SDS011;70882;52.500;5.500;2023-07-09T05:25:39;14.02;;;9.02;;
81457;SDS011;70882;52.500;5.500;2023-07-09T05:28:05;13.80;;;8.95;;
81457;SDS011;70882;52.500;5.500;2023-07-09T05:30:31;14.48;;;8.50;;
81457;SDS011;70882;52.500;5.500;2023-07-09T05:32:57;14.07;;;8.88;;
81457;SDS011;70882;52.500;5.500;2023-07-09T05:35:26;14.50;;;8.95;;
81457;SDS011;70882;52.500;5.500;2023-07-09T05:37:54;14.20;;;8.02;;
81457;SDS011;70882;52.500;5.500;2023-07-09T05:40:20;13.85;;;9.65;;
81457;SDS011;70882;52.500;5.500;2023-07-09T05:42:46;14.57;;;10.60;;
81457;SDS011;70882;52.500;5.500;2023-07-09T05:45:12;15.38;;;9.75;;
81457;SDS011;70882;52.500;5.500;2023-07-09T05:47:40;17.27;;;10.00;;
81457;SDS011;70882;52.500;5.500;2023-07-09T05:50:06;20.13;;;11.05;;
81457;SDS011;70882;52.500;5.500;2023-07-09T05:52:31;16.73;;;10.07;;
81457;SDS011;70882;52.500;5.500;2023-07-09T05:54:57;16.73;;;10.10;;
81457;SDS011;70882;52.500;5.500;2023-07-09T05:57:24;16.95;;;10.32;;
81457;SDS011;70882;52.500;5.500;2023-07-09T05:59:49;18.88;;;10.07;;
81457;SDS011;70882;52.500;5.500;2023-07-09T06:02:16;14.85;;;9.65;;
81457;SDS011;70882;52.500;5.500;2023-07-09T06:04:44;15.73;;;9.77;;
81457;SDS011;70882;52.500;5.500;2023-07-09T06:07:10;15.75;;;10.43;;
81457;SDS011;70882;52.500;5.500;2023-07-09T06:09:36;15.05;;;9.85;;
81457;SDS011;70882;52.500;5.500;2023-07-09T06:12:02;18.95;;;9.95;;
81457;SDS011;70882;52.500;5.500;2023-07-09T06:14:28;17.63;;;10.88;;
81457;SDS011;70882;52.500;5.500;2023-07-09T06:16:53;16.10;;;9.63;;
81457;SDS011;70882;52.500;5.500;2023-07-09T06:19:19;16.52;;;10.23;;
81457;SDS011;70882;52.500;5.500;2023-07-09T06:21:45;15.95;;;10.00;;
81457;SDS011;70882;52.500;5.500;2023-07-09T06:24:10;17.75;;;9.93;;
81457;SDS011;70882;52.500;5.500;2023-07-09T06:26:36;13.88;;;9.93;;
81457;SDS011;70882;52.500;5.500;2023-07-09T06:29:01;15.07;;;8.82;;
81457;SDS011;70882;52.500;5.500;2023-07-09T06:31:27;13.85;;;9.65;;
81457;SDS011;70882;52.500;5.500;2023-07-09T06:33:52;16.05;;;9.40;;
81457;SDS011;70882;52.500;5.500;2023-07-09T06:36:18;13.82;;;8.93;;
81457;SDS011;70882;52.500;5.500;2023-07-09T06:38:44;12.57;;;8.95;;
81457;SDS011;70882;52.500;5.500;2023-07-09T06:41:10;14.13;;;10.23;;
81457;SDS011;70882;52.500;5.500;2023-07-09T06:43:36;18.17;;;10.32;;
81457;SDS011;70882;52.500;5.500;2023-07-09T06:46:05;17.42;;;9.40;;
81457;SDS011;70882;52.500;5.500;2023-07-09T06:48:32;12.32;;;8.43;;
81457;SDS011;70882;52.500;5.500;2023-07-09T06:50:58;12.43;;;8.55;;
81457;SDS011;70882;52.500;5.500;2023-07-09T06:53:24;10.65;;;7.55;;
81457;SDS011;70882;52.500;5.500;2023-07-09T06:55:50;18.05;;;9.00;;
81457;SDS011;70882;52.500;5.500;2023-07-09T06:58:18;13.00;;;8.48;;
81457;SDS011;70882;52.500;5.500;2023-07-09T07:00:43;13.95;;;8.70;;
81457;SDS011;70882;52.500;5.500;2023-07-09T07:03:09;13.02;;;7.50;;
81457;SDS011;70882;52.500;5.500;2023-07-09T07:05:35;10.70;;;7.80;;
81457;SDS011;70882;52.500;5.500;2023-07-09T07:08:01;13.20;;;7.97;;
81457;SDS011;70882;52.500;5.500;2023-07-09T07:10:27;14.63;;;8.98;;
81457;SDS011;70882;52.500;5.500;2023-07-09T07:12:53;14.50;;;8.82;;
81457;SDS011;70882;52.500;5.500;2023-07-09T07:15:19;12.38;;;8.60;;
81457;SDS011;70882;52.500;5.500;2023-07-09T07:17:45;11.55;;;8.07;;
81457;SDS011;70882;52.500;5.500;2023-07-09T07:20:11;16.13;;;8.25;;
81457;SDS011;70882;52.500;5.500;2023-07-09T07:22:38;13.05;;;8.35;;
81457;SDS011;70882;52.500;5.500;2023-07-09T07:25:04;12.55;;;8.20;;
81457;SDS011;70882;52.500;5.500;2023-07-09T07:27:30;13.60;;;8.77;;
81457;SDS011;70882;52.500;5.500;2023-07-09T07:29:55;17.83;;;11.20;;
81457;SDS011;70882;52.500;5.500;2023-07-09T07:32:21;16.40;;;9.25;;
81457;SDS011;70882;52.500;5.500;2023-07-09T07:34:47;18.83;;;10.27;;
81457;SDS011;70882;52.500;5.500;2023-07-09T07:37:13;16.35;;;10.65;;
81457;SDS011;70882;52.500;5.500;2023-07-09T07:39:38;21.75;;;12.30;;
81457;SDS011;70882;52.500;5.500;2023-07-09T07:42:04;17.70;;;12.13;;
81457;SDS011;70882;52.500;5.500;2023-07-09T07:44:30;24.55;;;14.27;;
81457;SDS011;70882;52.500;5.500;2023-07-09T07:46:55;25.08;;;16.27;;
81457;SDS011;70882;52.500;5.500;2023-07-09T07:49:20;27.45;;;16.02;;
81457;SDS011;70882;52.500;5.500;2023-07-09T07:51:46;25.75;;;15.82;;
81457;SDS011;70882;52.500;5.500;2023-07-09T07:54:11;23.80;;;16.40;;
81457;SDS011;70882;52.500;5.500;2023-07-09T07:56:37;31.17;;;17.88;;
81457;SDS011;70882;52.500;5.500;2023-07-09T07:59:02;23.48;;;18.00;;
81457;SDS011;70882;52.500;5.500;2023-07-09T08:01:28;26.83;;;17.55;;
81457;SDS011;70882;52.500;5.500;2023-07-09T08:03:54;33.55;;;19.30;;
81457;SDS011;70882;52.500;5.500;2023-07-09T08:06:20;27.13;;;19.70;;
81457;SDS011;70882;52.500;5.500;2023-07-09T08:08:46;28.60;;;20.45;;
81457;SDS011;70882;52.500;5.500;2023-07-09T08:11:11;32.92;;;21.77;;
81457;SDS011;70882;52.500;5.500;2023-07-09T08:13:37;29.15;;;19.52;;
81457;SDS011;70882;52.500;5.500;2023-07-09T08:16:03;30.08;;;19.95;;
81457;SDS011;70882;52.500;5.500;2023-07-09T08:18:30;26.88;;;19.02;;
81457;SDS011;70882;52.500;5.500;2023-07-09T08:20:55;28.42;;;18.83;;
81457;SDS011;70882;52.500;5.500;2023-07-09T08:23:20;26.50;;;19.00;;
81457;SDS011;70882;52.500;5.500;2023-07-09T08:25:53;30.10;;;20.17;;
81457;SDS011;70882;52.500;5.500;2023-07-09T08:28:18;30.63;;;19.90;;
81457;SDS011;70882;52.500;5.500;2023-07-09T08:30:44;29.70;;;20.20;;
81457;SDS011;70882;52.500;5.500;2023-07-09T08:33:09;34.10;;;20.05;;
81457;SDS011;70882;52.500;5.500;2023-07-09T08:35:35;27.75;;;18.80;;
81457;SDS011;70882;52.500;5.500;2023-07-09T08:38:00;27.27;;;18.45;;
81457;SDS011;70882;52.500;5.500;2023-07-09T08:40:26;27.38;;;18.88;;
81457;SDS011;70882;52.500;5.500;2023-07-09T08:42:52;26.83;;;18.33;;
81457;SDS011;70882;52.500;5.500;2023-07-09T08:45:35;26.10;;;16.30;;
81457;SDS011;70882;52.500;5.500;2023-07-09T08:48:09;20.67;;;13.68;;
81457;SDS011;70882;52.500;5.500;2023-07-09T08:50:49;20.02;;;14.63;;
81457;SDS011;70882;52.500;5.500;2023-07-09T08:53:19;19.38;;;11.02;;
81457;SDS011;70882;52.500;5.500;2023-07-09T08:55:46;13.27;;;8.93;;
81457;SDS011;70882;52.500;5.500;2023-07-09T08:58:20;13.45;;;8.90;;
81457;SDS011;70882;52.500;5.500;2023-07-09T09:00:53;11.05;;;7.97;;
81457;SDS011;70882;52.500;5.500;2023-07-09T09:05:52;12.73;;;9.00;;
81457;SDS011;70882;52.500;5.500;2023-07-09T09:14:00;15.18;;;7.72;;
81457;SDS011;70882;52.500;5.500;2023-07-09T09:16:31;12.15;;;7.85;;
81457;SDS011;70882;52.500;5.500;2023-07-09T09:18:59;14.90;;;7.38;;
81457;SDS011;70882;52.500;5.500;2023-07-09T09:21:26;11.07;;;7.15;;
81457;SDS011;70882;52.500;5.500;2023-07-09T09:23:57;9.93;;;6.50;;
81457;SDS011;70882;52.500;5.500;2023-07-09T09:26:31;10.93;;;6.05;;
81457;SDS011;70882;52.500;5.500;2023-07-09T09:28:59;10.18;;;6.18;;
81457;SDS011;70882;52.500;5.500;2023-07-09T09:31:26;9.40;;;5.90;;
81457;SDS011;70882;52.500;5.500;2023-07-09T09:33:52;8.18;;;5.80;;
81457;SDS011;70882;52.500;5.500;2023-07-09T09:36:25;11.77;;;6.30;;
81457;SDS011;70882;52.500;5.500;2023-07-09T09:38:52;9.25;;;6.03;;
81457;SDS011;70882;52.500;5.500;2023-07-09T09:41:18;9.18;;;5.45;;
81457;SDS011;70882;52.500;5.500;2023-07-09T09:43:46;8.10;;;5.88;;
81457;SDS011;70882;52.500;5.500;2023-07-09T09:46:20;8.50;;;5.25;;
81457;SDS011;70882;52.500;5.500;2023-07-09T09:48:47;7.43;;;5.45;;
81457;SDS011;70882;52.500;5.500;2023-07-09T09:51:14;9.45;;;5.45;;
81457;SDS011;70882;52.500;5.500;2023-07-09T09:53:41;8.82;;;5.43;;
81457;SDS011;70882;52.500;5.500;2023-07-09T09:56:17;8.70;;;5.88;;
81457;SDS011;70882;52.500;5.500;2023-07-09T09:58:54;11.52;;;5.75;;
81457;SDS011;70882;52.500;5.500;2023-07-09T10:01:24;9.82;;;5.60;;
81457;SDS011;70882;52.500;5.500;2023-07-09T10:03:55;10.80;;;6.35;;
81457;SDS011;70882;52.500;5.500;2023-07-09T10:06:37;10.65;;;5.68;;
81457;SDS011;70882;52.500;5.500;2023-07-09T10:11:46;10.25;;;6.05;;
81457;SDS011;70882;52.500;5.500;2023-07-09T10:14:36;8.65;;;6.03;;
81457;SDS011;70882;52.500;5.500;2023-07-09T10:17:23;8.93;;;6.00;;
81457;SDS011;70882;52.500;5.500;2023-07-09T10:19:59;9.32;;;6.07;;
81457;SDS011;70882;52.500;5.500;2023-07-09T10:33:29;14.05;;;8.90;;
81457;SDS011;70882;52.500;5.500;2023-07-09T10:36:15;12.70;;;8.30;;
81457;SDS011;70882;52.500;5.500;2023-07-09T10:39:10;15.30;;;9.43;;
81457;SDS011;70882;52.500;5.500;2023-07-09T10:41:48;13.43;;;8.95;;
81457;SDS011;70882;52.500;5.500;2023-07-09T10:44:25;18.88;;;9.88;;
81457;SDS011;70882;52.500;5.500;2023-07-09T10:46:58;12.48;;;8.68;;
81457;SDS011;70882;52.500;5.500;2023-07-09T10:49:30;20.83;;;10.57;;
81457;SDS011;70882;52.500;5.500;2023-07-09T10:52:06;16.98;;;10.75;;
81457;SDS011;70882;52.500;5.500;2023-07-09T11:00:11;16.98;;;9.63;;
81457;SDS011;70882;52.500;5.500;2023-07-09T11:02:40;13.35;;;8.40;;
81457;SDS011;70882;52.500;5.500;2023-07-09T11:05:06;13.52;;;8.90;;
81457;SDS011;70882;52.500;5.500;2023-07-09T11:07:44;15.98;;;10.00;;
81457;SDS011;70882;52.500;5.500;2023-07-09T11:12:54;13.07;;;9.45;;
81457;SDS011;70882;52.500;5.500;2023-07-09T11:15:31;14.43;;;8.48;;
81457;SDS011;70882;52.500;5.500;2023-07-09T11:18:00;13.32;;;8.85;;
81457;SDS011;70882;52.500;5.500;2023-07-09T11:20:34;9.75;;;7.65;;
81457;SDS011;70882;52.500;5.500;2023-07-09T11:25:45;11.65;;;6.50;;
81457;SDS011;70882;52.500;5.500;2023-07-09T11:28:33;10.57;;;6.10;;
81457;SDS011;70882;52.500;5.500;2023-07-09T11:31:17;9.63;;;6.10;;
81457;SDS011;70882;52.500;5.500;2023-07-09T11:33:46;11.68;;;6.35;;
81457;SDS011;70882;52.500;5.500;2023-07-09T11:36:14;9.90;;;6.10;;
81457;SDS011;70882;52.500;5.500;2023-07-09T11:38:49;8.23;;;6.03;;
81457;SDS011;70882;52.500;5.500;2023-07-09T11:43:49;9.52;;;6.35;;
81457;SDS011;70882;52.500;5.500;2023-07-09T11:46:17;9.77;;;6.05;;
81457;SDS011;70882;52.500;5.500;2023-07-09T11:48:43;9.60;;;6.72;;
81457;SDS011;70882;52.500;5.500;2023-07-09T11:51:20;11.10;;;7.07;;
81457;SDS011;70882;52.500;5.500;2023-07-09T11:53:52;13.27;;;7.45;;
81457;SDS011;70882;52.500;5.500;2023-07-09T11:56:19;9.20;;;7.43;;
81457;SDS011;70882;52.500;5.500;2023-07-09T11:58:49;12.88;;;7.35;;
81457;SDS011;70882;52.500;5.500;2023-07-09T12:01:16;10.95;;;7.78;;
81457;SDS011;70882;52.500;5.500;2023-07-09T12:03:44;11.63;;;6.63;;
81457;SDS011;70882;52.500;5.500;2023-07-09T12:06:16;11.52;;;7.13;;
81457;SDS011;70882;52.500;5.500;2023-07-09T12:08:43;11.88;;;7.07;;
81457;SDS011;70882;52.500;5.500;2023-07-09T12:11:20;11.18;;;6.43;;
81457;SDS011;70882;52.500;5.500;2023-07-09T12:13:46;11.88;;;6.25;;
81457;SDS011;70882;52.500;5.500;2023-07-09T12:16:25;8.30;;;5.85;;
81457;SDS011;70882;52.500;5.500;2023-07-09T12:18:53;11.13;;;5.63;;
81457;SDS011;70882;52.500;5.500;2023-07-09T12:21:18;8.65;;;4.68;;
81457;SDS011;70882;52.500;5.500;2023-07-09T12:23:44;8.98;;;4.80;;
81457;SDS011;70882;52.500;5.500;2023-07-09T12:26:11;8.40;;;4.40;;
81457;SDS011;70882;52.500;5.500;2023-07-09T12:28:40;6.43;;;4.45;;
81457;SDS011;70882;52.500;5.500;2023-07-09T12:31:10;8.20;;;5.35;;
81457;SDS011;70882;52.500;5.500;2023-07-09T12:33:45;7.57;;;4.88;;
81457;SDS011;70882;52.500;5.500;2023-07-09T12:36:13;8.23;;;5.20;;
81457;SDS011;70882;52.500;5.500;2023-07-09T12:38:40;9.20;;;4.85;;
81457;SDS011;70882;52.500;5.500;2023-07-09T12:41:12;8.95;;;5.15;;
81457;SDS011;70882;52.500;5.500;2023-07-09T12:43:42;6.88;;;4.65;;
81457;SDS011;70882;52.500;5.500;2023-07-09T12:46:08;8.65;;;5.47;;
81457;SDS011;70882;52.500;5.500;2023-07-09T12:48:34;8.73;;;5.40;;
81457;SDS011;70882;52.500;5.500;2023-07-09T12:51:00;8.60;;;5.40;;
81457;SDS011;70882;52.500;5.500;2023-07-09T12:53:27;8.80;;;5.90;;
81457;SDS011;70882;52.500;5.500;2023-07-09T12:56:00;8.93;;;5.85;;
81457;SDS011;70882;52.500;5.500;2023-07-09T12:58:33;7.80;;;5.13;;
81457;SDS011;70882;52.500;5.500;2023-07-09T13:01:06;8.27;;;5.53;;
81457;SDS011;70882;52.500;5.500;2023-07-09T13:03:36;6.53;;;4.10;;
81457;SDS011;70882;52.500;5.500;2023-07-09T13:06:03;5.70;;;3.72;;
81457;SDS011;70882;52.500;5.500;2023-07-09T13:08:30;6.45;;;3.80;;
81457;SDS011;70882;52.500;5.500;2023-07-09T13:10:57;6.80;;;3.55;;
81457;SDS011;70882;52.500;5.500;2023-07-09T13:13:24;4.93;;;3.20;;
81457;SDS011;70882;52.500;5.500;2023-07-09T13:15:51;4.43;;;3.53;;
81457;SDS011;70882;52.500;5.500;2023-07-09T13:18:25;5.65;;;3.20;;
81457;SDS011;70882;52.500;5.500;2023-07-09T13:20:52;6.00;;;3.08;;
81457;SDS011;70882;52.500;5.500;2023-07-09T13:23:26;6.32;;;3.15;;
81457;SDS011;70882;52.500;5.500;2023-07-09T13:25:53;5.85;;;2.92;;
81457;SDS011;70882;52.500;5.500;2023-07-09T13:28:25;6.85;;;2.90;;
81457;SDS011;70882;52.500;5.500;2023-07-09T13:31:16;6.65;;;2.83;;
81457;SDS011;70882;52.500;5.500;2023-07-09T13:33:50;8.35;;;3.08;;
81457;SDS011;70882;52.500;5.500;2023-07-09T13:36:18;3.28;;;2.80;;
81457;SDS011;70882;52.500;5.500;2023-07-09T13:38:43;6.95;;;3.92;;
81457;SDS011;70882;52.500;5.500;2023-07-09T13:41:10;5.30;;;2.88;;
81457;SDS011;70882;52.500;5.500;2023-07-09T13:43:38;4.50;;;3.03;;
81457;SDS011;70882;52.500;5.500;2023-07-09T13:46:06;5.45;;;4.15;;
81457;SDS011;70882;52.500;5.500;2023-07-09T13:48:32;6.00;;;3.22;;
81457;SDS011;70882;52.500;5.500;2023-07-09T13:50:58;6.72;;;3.70;;
81457;SDS011;70882;52.500;5.500;2023-07-09T13:53:26;5.97;;;3.25;;
81457;SDS011;70882;52.500;5.500;2023-07-09T13:55:54;5.03;;;3.15;;
81457;SDS011;70882;52.500;5.500;2023-07-09T13:58:21;6.78;;;3.58;;
81457;SDS011;70882;52.500;5.500;2023-07-09T14:00:49;7.72;;;3.50;;
81457;SDS011;70882;52.500;5.500;2023-07-09T14:03:17;4.97;;;2.75;;
81457;SDS011;70882;52.500;5.500;2023-07-09T14:05:44;4.47;;;2.40;;
81457;SDS011;70882;52.500;5.500;2023-07-09T14:08:11;6.90;;;2.58;;
81457;SDS011;70882;52.500;5.500;2023-07-09T14:10:36;4.50;;;2.30;;
81457;SDS011;70882;52.500;5.500;2023-07-09T14:13:02;6.05;;;2.42;;
81457;SDS011;70882;52.500;5.500;2023-07-09T14:15:28;7.10;;;2.72;;
81457;SDS011;70882;52.500;5.500;2023-07-09T14:17:54;11.02;;;2.80;;
81457;SDS011;70882;52.500;5.500;2023-07-09T14:20:23;6.72;;;2.88;;
81457;SDS011;70882;52.500;5.500;2023-07-09T14:22:49;5.32;;;2.70;;
81457;SDS011;70882;52.500;5.500;2023-07-09T14:25:17;12.60;;;3.10;;
81457;SDS011;70882;52.500;5.500;2023-07-09T14:27:44;8.57;;;3.10;;
81457;SDS011;70882;52.500;5.500;2023-07-09T14:30:13;10.35;;;3.60;;
81457;SDS011;70882;52.500;5.500;2023-07-09T14:32:39;7.93;;;3.03;;
81457;SDS011;70882;52.500;5.500;2023-07-09T14:35:21;11.63;;;3.50;;
81457;SDS011;70882;52.500;5.500;2023-07-09T14:37:48;11.82;;;3.28;;
81457;SDS011;70882;52.500;5.500;2023-07-09T14:40:16;8.73;;;3.22;;
81457;SDS011;70882;52.500;5.500;2023-07-09T14:42:42;12.73;;;4.18;;
81457;SDS011;70882;52.500;5.500;2023-07-09T14:45:18;8.68;;;3.28;;
81457;SDS011;70882;52.500;5.500;2023-07-09T14:47:48;9.75;;;3.47;;
81457;SDS011;70882;52.500;5.500;2023-07-09T14:50:14;8.05;;;3.65;;
81457;SDS011;70882;52.500;5.500;2023-07-09T14:52:40;8.48;;;3.58;;
81457;SDS011;70882;52.500;5.500;2023-07-09T14:55:08;11.70;;;3.72;;
81457;SDS011;70882;52.500;5.500;2023-07-09T14:57:39;9.18;;;3.33;;
81457;SDS011;70882;52.500;5.500;2023-07-09T15:00:04;9.30;;;3.50;;
81457;SDS011;70882;52.500;5.500;2023-07-09T15:02:37;12.40;;;3.67;;
81457;SDS011;70882;52.500;5.500;2023-07-09T15:05:05;9.15;;;4.15;;
81457;SDS011;70882;52.500;5.500;2023-07-09T15:07:35;9.93;;;4.20;;
81457;SDS011;70882;52.500;5.500;2023-07-09T15:10:01;8.70;;;3.63;;
81457;SDS011;70882;52.500;5.500;2023-07-09T15:12:30;12.20;;;6.57;;
81457;SDS011;70882;52.500;5.500;2023-07-09T15:14:59;11.50;;;5.40;;
81457;SDS011;70882;52.500;5.500;2023-07-09T15:17:28;14.48;;;8.43;;